sensor_id;sensor_type;location;lat;lon;timestamp;temperature;humidity
9393;DHT22;4736;52.508;13.422;2022-11-15T00:02:55;6.00;1.00
9393;DHT22;4736;52.508;13.422;2022-11-15T00:06:02;6.30;1.00
9393;DHT22;4736;52.508;13.422;2022-11-15T00:09:05;6.00;1.00
9393;DHT22;4736;52.508;13.422;2022-11-15T00:12:12;5.90;1.00
9393;DHT22;4736;52.508;13.422;2022-11-15T00:15:15;5.80;1.00
9393;DHT22;4736;52.508;13.422;2022-11-15T00:18:18;6.20;1.00
9393;DHT22;4736;52.508;13.422;2022-11-15T00:21:21;6.10;1.00
9393;DHT22;4736;52.508;13.422;2022-11-15T00:24:24;5.90;1.00
9393;DHT22;4736;52.508;13.422;2022-11-15T00:27:28;5.70;1.00
9393;DHT22;4736;52.508;13.422;2022-11-15T00:30:31;5.90;1.00
9393;DHT22;4736;52.508;13.422;2022-11-15T00:33:34;5.80;1.00
9393;DHT22;4736;52.508;13.422;2022-11-15T00:36:37;5.80;1.00
9393;DHT22;4736;52.508;13.422;2022-11-15T00:39:44;5.80;1.00
9393;DHT22;4736;52.508;13.422;2022-11-15T00:42:48;5.80;1.00
9393;DHT22;4736;52.508;13.422;2022-11-15T00:45:51;5.80;1.00
9393;DHT22;4736;52.508;13.422;2022-11-15T00:48:54;5.80;1.00
9393;DHT22;4736;52.508;13.422;2022-11-15T00:52:01;5.80;1.00
9393;DHT22;4736;52.508;13.422;2022-11-15T00:55:05;5.80;1.00
9393;DHT22;4736;52.508;13.422;2022-11-15T00:58:09;5.70;1.00
9393;DHT22;4736;52.508;13.422;2022-11-15T01:01:14;5.70;1.00
9393;DHT22;4736;52.508;13.422;2022-11-15T01:04:17;5.80;1.00
9393;DHT22;4736;52.508;13.422;2022-11-15T01:07:20;5.70;1.00
9393;DHT22;4736;52.508;13.422;2022-11-15T01:10:23;5.70;1.00
9393;DHT22;4736;52.508;13.422;2022-11-15T01:13:36;5.50;1.00
9393;DHT22;4736;52.508;13.422;2022-11-15T01:16:39;5.60;1.00
9393;DHT22;4736;52.508;13.422;2022-11-15T01:19:42;5.50;1.00
9393;DHT22;4736;52.508;13.422;2022-11-15T01:22:45;5.70;1.00
9393;DHT22;4736;52.508;13.422;2022-11-15T01:25:48;5.60;1.00
9393;DHT22;4736;52.508;13.422;2022-11-15T01:28:52;5.50;1.00
9393;DHT22;4736;52.508;13.422;2022-11-15T01:31:55;5.60;1.00
9393;DHT22;4736;52.508;13.422;2022-11-15T01:34:58;5.60;1.00
9393;DHT22;4736;52.508;13.422;2022-11-15T01:38:03;5.50;1.00
9393;DHT22;4736;52.508;13.422;2022-11-15T01:41:05;5.40;1.00
9393;DHT22;4736;52.508;13.422;2022-11-15T01:44:44;5.60;1.00
9393;DHT22;4736;52.508;13.422;2022-11-15T01:47:51;5.40;1.00
9393;DHT22;4736;52.508;13.422;2022-11-15T01:50:54;5.50;1.00
9393;DHT22;4736;52.508;13.422;2022-11-15T01:54:02;5.40;1.00
9393;DHT22;4736;52.508;13.422;2022-11-15T01:57:08;5.20;1.00
9393;DHT22;4736;52.508;13.422;2022-11-15T02:00:15;5.20;1.00
9393;DHT22;4736;52.508;13.422;2022-11-15T02:03:19;5.50;1.00
9393;DHT22;4736;52.508;13.422;2022-11-15T02:06:24;5.40;1.00
9393;DHT22;4736;52.508;13.422;2022-11-15T02:09:27;5.30;1.00
9393;DHT22;4736;52.508;13.422;2022-11-15T02:12:31;5.30;1.00
9393;DHT22;4736;52.508;13.422;2022-11-15T02:15:41;5.30;1.00
9393;DHT22;4736;52.508;13.422;2022-11-15T02:18:50;5.30;1.00
9393;DHT22;4736;52.508;13.422;2022-11-15T02:22:04;5.40;1.00
9393;DHT22;4736;52.508;13.422;2022-11-15T02:25:26;5.40;1.00
9393;DHT22;4736;52.508;13.422;2022-11-15T02:28:51;5.40;1.00
9393;DHT22;4736;52.508;13.422;2022-11-15T02:32:04;5.40;1.00
9393;DHT22;4736;52.508;13.422;2022-11-15T02:35:17;5.20;1.00
9393;DHT22;4736;52.508;13.422;2022-11-15T02:38:27;5.50;1.00
9393;DHT22;4736;52.508;13.422;2022-11-15T02:41:38;5.40;1.00
9393;DHT22;4736;52.508;13.422;2022-11-15T02:44:45;5.20;1.00
9393;DHT22;4736;52.508;13.422;2022-11-15T02:47:50;5.40;1.00
9393;DHT22;4736;52.508;13.422;2022-11-15T02:50:56;5.10;1.00
9393;DHT22;4736;52.508;13.422;2022-11-15T02:54:00;5.30;1.00
9393;DHT22;4736;52.508;13.422;2022-11-15T02:57:06;5.20;1.00
9393;DHT22;4736;52.508;13.422;2022-11-15T03:00:11;5.30;1.00
9393;DHT22;4736;52.508;13.422;2022-11-15T03:03:44;5.20;1.00
9393;DHT22;4736;52.508;13.422;2022-11-15T03:06:52;5.50;1.00
9393;DHT22;4736;52.508;13.422;2022-11-15T03:10:02;5.20;1.00
9393;DHT22;4736;52.508;13.422;2022-11-15T03:13:16;5.20;1.00
9393;DHT22;4736;52.508;13.422;2022-11-15T03:16:23;5.10;1.00
9393;DHT22;4736;52.508;13.422;2022-11-15T03:19:40;5.30;1.00
9393;DHT22;4736;52.508;13.422;2022-11-15T03:22:48;5.30;1.00
9393;DHT22;4736;52.508;13.422;2022-11-15T03:25:53;5.50;1.00
9393;DHT22;4736;52.508;13.422;2022-11-15T03:29:02;5.40;1.00
9393;DHT22;4736;52.508;13.422;2022-11-15T03:32:11;5.30;1.00
9393;DHT22;4736;52.508;13.422;2022-11-15T03:35:20;5.20;1.00
9393;DHT22;4736;52.508;13.422;2022-11-15T03:38:25;5.20;1.00
9393;DHT22;4736;52.508;13.422;2022-11-15T03:41:32;5.30;1.00
9393;DHT22;4736;52.508;13.422;2022-11-15T03:44:41;5.40;1.00
9393;DHT22;4736;52.508;13.422;2022-11-15T03:47:48;5.30;1.00
9393;DHT22;4736;52.508;13.422;2022-11-15T03:50:53;5.20;1.00
9393;DHT22;4736;52.508;13.422;2022-11-15T03:53:57;5.20;1.00
9393;DHT22;4736;52.508;13.422;2022-11-15T03:57:00;5.40;1.00
9393;DHT22;4736;52.508;13.422;2022-11-15T04:00:03;5.40;1.00
9393;DHT22;4736;52.508;13.422;2022-11-15T04:03:06;5.10;1.00
9393;DHT22;4736;52.508;13.422;2022-11-15T04:06:11;5.10;1.00
9393;DHT22;4736;52.508;13.422;2022-11-15T04:09:14;5.30;1.00
9393;DHT22;4736;52.508;13.422;2022-11-15T04:12:17;5.10;1.00
9393;DHT22;4736;52.508;13.422;2022-11-15T04:15:32;5.20;1.00
9393;DHT22;4736;52.508;13.422;2022-11-15T04:18:35;5.20;1.00
9393;DHT22;4736;52.508;13.422;2022-11-15T04:21:41;5.20;1.00
9393;DHT22;4736;52.508;13.422;2022-11-15T04:25:25;5.40;1.00
9393;DHT22;4736;52.508;13.422;2022-11-15T04:28:33;5.10;1.00
9393;DHT22;4736;52.508;13.422;2022-11-15T04:31:36;5.10;1.00
9393;DHT22;4736;52.508;13.422;2022-11-15T04:34:39;5.20;1.00
9393;DHT22;4736;52.508;13.422;2022-11-15T04:37:44;5.20;1.00
9393;DHT22;4736;52.508;13.422;2022-11-15T04:40:50;5.20;1.00
9393;DHT22;4736;52.508;13.422;2022-11-15T04:43:53;5.30;1.00
9393;DHT22;4736;52.508;13.422;2022-11-15T04:46:57;5.20;1.00
9393;DHT22;4736;52.508;13.422;2022-11-15T04:49:59;5.30;1.00
9393;DHT22;4736;52.508;13.422;2022-11-15T04:53:04;5.20;1.00
9393;DHT22;4736;52.508;13.422;2022-11-15T04:56:07;5.10;1.00
9393;DHT22;4736;52.508;13.422;2022-11-15T04:59:10;5.10;1.00
9393;DHT22;4736;52.508;13.422;2022-11-15T05:02:14;5.30;1.00
9393;DHT22;4736;52.508;13.422;2022-11-15T05:05:20;5.00;1.00
9393;DHT22;4736;52.508;13.422;2022-11-15T05:08:24;5.20;1.00
9393;DHT22;4736;52.508;13.422;2022-11-15T05:11:27;5.20;1.00
9393;DHT22;4736;52.508;13.422;2022-11-15T05:14:30;5.10;1.00
9393;DHT22;4736;52.508;13.422;2022-11-15T05:17:33;5.10;1.00
9393;DHT22;4736;52.508;13.422;2022-11-15T05:20:36;5.20;1.00
9393;DHT22;4736;52.508;13.422;2022-11-15T05:23:41;5.00;1.00
9393;DHT22;4736;52.508;13.422;2022-11-15T05:26:43;5.10;1.00
9393;DHT22;4736;52.508;13.422;2022-11-15T05:29:47;5.10;1.00
9393;DHT22;4736;52.508;13.422;2022-11-15T05:32:50;5.00;1.00
9393;DHT22;4736;52.508;13.422;2022-11-15T05:35:57;5.10;1.00
9393;DHT22;4736;52.508;13.422;2022-11-15T05:39:05;4.90;1.00
9393;DHT22;4736;52.508;13.422;2022-11-15T05:42:11;5.10;1.00
9393;DHT22;4736;52.508;13.422;2022-11-15T05:45:16;5.10;1.00
9393;DHT22;4736;52.508;13.422;2022-11-15T05:48:27;5.20;1.00
9393;DHT22;4736;52.508;13.422;2022-11-15T05:51:30;5.20;1.00
9393;DHT22;4736;52.508;13.422;2022-11-15T05:54:36;5.10;1.00
9393;DHT22;4736;52.508;13.422;2022-11-15T05:57:39;5.00;1.00
9393;DHT22;4736;52.508;13.422;2022-11-15T06:00:42;5.10;1.00
9393;DHT22;4736;52.508;13.422;2022-11-15T06:03:45;5.10;1.00
9393;DHT22;4736;52.508;13.422;2022-11-15T06:06:48;5.10;1.00
9393;DHT22;4736;52.508;13.422;2022-11-15T06:09:53;5.20;1.00
9393;DHT22;4736;52.508;13.422;2022-11-15T06:12:57;5.00;1.00
9393;DHT22;4736;52.508;13.422;2022-11-15T06:16:05;5.10;1.00
9393;DHT22;4736;52.508;13.422;2022-11-15T06:19:08;5.10;1.00
9393;DHT22;4736;52.508;13.422;2022-11-15T06:22:11;5.00;1.00
9393;DHT22;4736;52.508;13.422;2022-11-15T06:25:24;5.10;1.00
9393;DHT22;4736;52.508;13.422;2022-11-15T06:28:28;5.10;1.00
9393;DHT22;4736;52.508;13.422;2022-11-15T06:31:31;5.10;1.00
9393;DHT22;4736;52.508;13.422;2022-11-15T06:34:35;5.00;1.00
9393;DHT22;4736;52.508;13.422;2022-11-15T06:37:38;5.20;1.00
9393;DHT22;4736;52.508;13.422;2022-11-15T06:40:43;5.30;1.00
9393;DHT22;4736;52.508;13.422;2022-11-15T06:43:46;5.10;1.00
9393;DHT22;4736;52.508;13.422;2022-11-15T06:46:49;5.20;1.00
9393;DHT22;4736;52.508;13.422;2022-11-15T06:49:52;5.50;1.00
9393;DHT22;4736;52.508;13.422;2022-11-15T06:52:55;5.40;1.00
9393;DHT22;4736;52.508;13.422;2022-11-15T06:56:07;5.40;1.00
9393;DHT22;4736;52.508;13.422;2022-11-15T06:59:10;5.40;1.00
9393;DHT22;4736;52.508;13.422;2022-11-15T07:02:14;5.40;1.00
9393;DHT22;4736;52.508;13.422;2022-11-15T07:05:16;5.40;1.00
9393;DHT22;4736;52.508;13.422;2022-11-15T07:08:20;5.40;1.00
9393;DHT22;4736;52.508;13.422;2022-11-15T07:11:24;5.40;1.00
9393;DHT22;4736;52.508;13.422;2022-11-15T07:14:27;5.50;1.00
9393;DHT22;4736;52.508;13.422;2022-11-15T07:17:32;5.60;1.00
9393;DHT22;4736;52.508;13.422;2022-11-15T07:20:35;5.50;1.00
9393;DHT22;4736;52.508;13.422;2022-11-15T07:23:38;5.50;1.00
9393;DHT22;4736;52.508;13.422;2022-11-15T07:26:43;5.50;1.00
9393;DHT22;4736;52.508;13.422;2022-11-15T07:29:46;5.50;1.00
9393;DHT22;4736;52.508;13.422;2022-11-15T07:32:53;5.90;1.00
9393;DHT22;4736;52.508;13.422;2022-11-15T07:35:59;5.70;1.00
9393;DHT22;4736;52.508;13.422;2022-11-15T07:39:04;5.90;1.00
9393;DHT22;4736;52.508;13.422;2022-11-15T07:42:09;5.90;1.00
9393;DHT22;4736;52.508;13.422;2022-11-15T07:45:30;6.00;1.00
9393;DHT22;4736;52.508;13.422;2022-11-15T07:48:35;6.00;1.00
9393;DHT22;4736;52.508;13.422;2022-11-15T07:51:45;6.00;1.00
9393;DHT22;4736;52.508;13.422;2022-11-15T07:54:48;6.10;1.00
9393;DHT22;4736;52.508;13.422;2022-11-15T07:57:53;6.40;1.00
9393;DHT22;4736;52.508;13.422;2022-11-15T08:00:56;6.10;1.00
9393;DHT22;4736;52.508;13.422;2022-11-15T08:03:59;6.30;1.00
9393;DHT22;4736;52.508;13.422;2022-11-15T08:07:01;6.40;1.00
9393;DHT22;4736;52.508;13.422;2022-11-15T08:10:05;6.50;1.00
9393;DHT22;4736;52.508;13.422;2022-11-15T08:13:11;6.70;1.00
9393;DHT22;4736;52.508;13.422;2022-11-15T08:16:15;6.60;1.00
9393;DHT22;4736;52.508;13.422;2022-11-15T08:19:18;6.90;1.00
9393;DHT22;4736;52.508;13.422;2022-11-15T08:22:21;6.90;1.00
9393;DHT22;4736;52.508;13.422;2022-11-15T08:25:24;6.80;1.00
9393;DHT22;4736;52.508;13.422;2022-11-15T08:28:29;7.10;1.00
9393;DHT22;4736;52.508;13.422;2022-11-15T08:31:32;7.20;1.00
9393;DHT22;4736;52.508;13.422;2022-11-15T08:34:35;7.30;1.00
9393;DHT22;4736;52.508;13.422;2022-11-15T08:37:38;7.50;1.00
9393;DHT22;4736;52.508;13.422;2022-11-15T08:40:41;7.70;1.00
9393;DHT22;4736;52.508;13.422;2022-11-15T08:43:45;7.90;1.00
9393;DHT22;4736;52.508;13.422;2022-11-15T08:46:54;7.80;1.00
9393;DHT22;4736;52.508;13.422;2022-11-15T08:49:57;7.90;1.00
9393;DHT22;4736;52.508;13.422;2022-11-15T08:53:04;7.90;1.00
9393;DHT22;4736;52.508;13.422;2022-11-15T08:56:09;8.10;1.00
9393;DHT22;4736;52.508;13.422;2022-11-15T08:59:13;8.20;1.00
9393;DHT22;4736;52.508;13.422;2022-11-15T09:02:16;8.60;1.00
9393;DHT22;4736;52.508;13.422;2022-11-15T09:05:19;8.50;1.00
9393;DHT22;4736;52.508;13.422;2022-11-15T09:08:22;8.70;1.00
9393;DHT22;4736;52.508;13.422;2022-11-15T09:11:46;8.80;1.00
9393;DHT22;4736;52.508;13.422;2022-11-15T09:14:50;8.90;1.00
9393;DHT22;4736;52.508;13.422;2022-11-15T09:18:05;9.10;1.00
9393;DHT22;4736;52.508;13.422;2022-11-15T09:21:09;9.20;1.00
9393;DHT22;4736;52.508;13.422;2022-11-15T09:24:15;9.30;1.00
9393;DHT22;4736;52.508;13.422;2022-11-15T09:27:27;9.50;1.00
9393;DHT22;4736;52.508;13.422;2022-11-15T09:30:32;9.60;1.00
9393;DHT22;4736;52.508;13.422;2022-11-15T09:33:36;9.80;1.00
9393;DHT22;4736;52.508;13.422;2022-11-15T09:36:39;9.90;1.00
9393;DHT22;4736;52.508;13.422;2022-11-15T09:39:42;10.10;1.00
9393;DHT22;4736;52.508;13.422;2022-11-15T09:43:02;10.20;1.00
9393;DHT22;4736;52.508;13.422;2022-11-15T09:46:15;10.30;1.00
9393;DHT22;4736;52.508;13.422;2022-11-15T09:49:21;10.30;1.00
9393;DHT22;4736;52.508;13.422;2022-11-15T09:52:25;10.40;1.00
9393;DHT22;4736;52.508;13.422;2022-11-15T09:55:34;10.60;1.00
9393;DHT22;4736;52.508;13.422;2022-11-15T09:58:44;10.80;1.00
9393;DHT22;4736;52.508;13.422;2022-11-15T10:02:01;10.80;1.00
9393;DHT22;4736;52.508;13.422;2022-11-15T10:05:11;10.90;1.00
9393;DHT22;4736;52.508;13.422;2022-11-15T10:08:29;11.00;1.00
9393;DHT22;4736;52.508;13.422;2022-11-15T10:11:37;11.10;1.00
9393;DHT22;4736;52.508;13.422;2022-11-15T10:14:42;11.20;1.00
9393;DHT22;4736;52.508;13.422;2022-11-15T10:18:01;11.30;1.00
9393;DHT22;4736;52.508;13.422;2022-11-15T10:21:18;11.40;1.00
9393;DHT22;4736;52.508;13.422;2022-11-15T10:24:26;11.40;1.00
9393;DHT22;4736;52.508;13.422;2022-11-15T10:27:30;11.60;1.00
9393;DHT22;4736;52.508;13.422;2022-11-15T10:30:35;11.70;1.00
9393;DHT22;4736;52.508;13.422;2022-11-15T10:33:41;11.80;1.00
9393;DHT22;4736;52.508;13.422;2022-11-15T10:36:44;11.90;1.00
9393;DHT22;4736;52.508;13.422;2022-11-15T10:40:03;12.00;1.00
9393;DHT22;4736;52.508;13.422;2022-11-15T10:43:14;12.10;1.00
9393;DHT22;4736;52.508;13.422;2022-11-15T10:46:19;12.30;1.00
9393;DHT22;4736;52.508;13.422;2022-11-15T10:49:59;12.40;1.00
9393;DHT22;4736;52.508;13.422;2022-11-15T10:53:02;12.60;1.00
9393;DHT22;4736;52.508;13.422;2022-11-15T10:56:08;12.60;1.00
9393;DHT22;4736;52.508;13.422;2022-11-15T10:59:17;12.80;1.00
9393;DHT22;4736;52.508;13.422;2022-11-15T11:02:31;12.90;1.00
9393;DHT22;4736;52.508;13.422;2022-11-15T11:05:37;13.00;1.00
9393;DHT22;4736;52.508;13.422;2022-11-15T11:08:55;13.10;1.00
9393;DHT22;4736;52.508;13.422;2022-11-15T11:11:59;13.20;1.00
9393;DHT22;4736;52.508;13.422;2022-11-15T11:15:13;13.20;1.00
9393;DHT22;4736;52.508;13.422;2022-11-15T11:18:22;13.20;1.00
9393;DHT22;4736;52.508;13.422;2022-11-15T11:21:36;13.30;1.00
9393;DHT22;4736;52.508;13.422;2022-11-15T11:24:47;13.30;1.00
9393;DHT22;4736;52.508;13.422;2022-11-15T11:27:59;13.30;1.00
9393;DHT22;4736;52.508;13.422;2022-11-15T11:31:18;13.40;1.00
9393;DHT22;4736;52.508;13.422;2022-11-15T11:34:39;13.40;1.00
9393;DHT22;4736;52.508;13.422;2022-11-15T11:37:49;13.50;1.00
9393;DHT22;4736;52.508;13.422;2022-11-15T11:41:01;13.50;1.00
9393;DHT22;4736;52.508;13.422;2022-11-15T11:44:18;13.60;1.00
9393;DHT22;4736;52.508;13.422;2022-11-15T11:47:24;13.50;1.00
9393;DHT22;4736;52.508;13.422;2022-11-15T11:50:29;13.60;1.00
9393;DHT22;4736;52.508;13.422;2022-11-15T11:53:39;13.70;1.00
9393;DHT22;4736;52.508;13.422;2022-11-15T11:56:44;13.70;1.00
9393;DHT22;4736;52.508;13.422;2022-11-15T11:59:51;13.70;1.00
9393;DHT22;4736;52.508;13.422;2022-11-15T12:03:04;13.70;1.00
9393;DHT22;4736;52.508;13.422;2022-11-15T12:06:26;13.80;1.00
9393;DHT22;4736;52.508;13.422;2022-11-15T12:09:35;13.80;1.00
9393;DHT22;4736;52.508;13.422;2022-11-15T12:12:47;13.90;1.00
9393;DHT22;4736;52.508;13.422;2022-11-15T12:15:56;14.00;1.00
9393;DHT22;4736;52.508;13.422;2022-11-15T12:19:07;14.00;1.00
9393;DHT22;4736;52.508;13.422;2022-11-15T12:22:13;14.10;1.00
9393;DHT22;4736;52.508;13.422;2022-11-15T12:25:25;14.20;1.00
9393;DHT22;4736;52.508;13.422;2022-11-15T12:28:37;14.20;1.00
9393;DHT22;4736;52.508;13.422;2022-11-15T12:32:21;14.10;1.00
9393;DHT22;4736;52.508;13.422;2022-11-15T12:35:30;14.00;1.00
9393;DHT22;4736;52.508;13.422;2022-11-15T12:38:54;13.90;1.00
9393;DHT22;4736;52.508;13.422;2022-11-15T12:45:36;14.00;1.00
9393;DHT22;4736;52.508;13.422;2022-11-15T12:48:58;14.10;1.00
9393;DHT22;4736;52.508;13.422;2022-11-15T12:52:07;14.10;1.00
9393;DHT22;4736;52.508;13.422;2022-11-15T12:55:30;14.10;1.00
9393;DHT22;4736;52.508;13.422;2022-11-15T12:58:41;14.10;1.00
9393;DHT22;4736;52.508;13.422;2022-11-15T13:01:58;14.10;1.00
9393;DHT22;4736;52.508;13.422;2022-11-15T13:08:56;14.10;1.00
9393;DHT22;4736;52.508;13.422;2022-11-15T13:11:59;14.10;1.00
9393;DHT22;4736;52.508;13.422;2022-11-15T13:15:32;14.10;1.00
9393;DHT22;4736;52.508;13.422;2022-11-15T13:18:53;14.00;1.00
9393;DHT22;4736;52.508;13.422;2022-11-15T13:21:56;13.90;1.00
9393;DHT22;4736;52.508;13.422;2022-11-15T13:25:19;13.90;1.00
9393;DHT22;4736;52.508;13.422;2022-11-15T13:28:31;13.90;1.00
9393;DHT22;4736;52.508;13.422;2022-11-15T13:31:42;13.90;1.00
9393;DHT22;4736;52.508;13.422;2022-11-15T13:34:49;13.80;1.00
9393;DHT22;4736;52.508;13.422;2022-11-15T13:37:55;13.80;1.00
9393;DHT22;4736;52.508;13.422;2022-11-15T13:41:13;13.80;1.00
9393;DHT22;4736;52.508;13.422;2022-11-15T13:44:20;13.70;1.00
9393;DHT22;4736;52.508;13.422;2022-11-15T13:47:26;13.70;1.00
9393;DHT22;4736;52.508;13.422;2022-11-15T13:50:33;13.60;1.00
9393;DHT22;4736;52.508;13.422;2022-11-15T13:53:40;13.60;1.00
9393;DHT22;4736;52.508;13.422;2022-11-15T13:56:47;13.50;1.00
9393;DHT22;4736;52.508;13.422;2022-11-15T13:59:52;13.40;1.00
9393;DHT22;4736;52.508;13.422;2022-11-15T14:02:57;13.40;1.00
9393;DHT22;4736;52.508;13.422;2022-11-15T14:06:09;13.30;1.00
9393;DHT22;4736;52.508;13.422;2022-11-15T14:09:35;13.20;1.00
9393;DHT22;4736;52.508;13.422;2022-11-15T14:12:39;13.10;1.00
9393;DHT22;4736;52.508;13.422;2022-11-15T14:15:43;13.00;1.00
9393;DHT22;4736;52.508;13.422;2022-11-15T14:18:48;12.90;1.00
9393;DHT22;4736;52.508;13.422;2022-11-15T14:22:12;12.90;1.00
9393;DHT22;4736;52.508;13.422;2022-11-15T14:25:18;12.80;1.00
9393;DHT22;4736;52.508;13.422;2022-11-15T14:28:29;12.80;1.00
9393;DHT22;4736;52.508;13.422;2022-11-15T14:31:35;12.70;1.00
9393;DHT22;4736;52.508;13.422;2022-11-15T14:34:44;12.60;1.00
9393;DHT22;4736;52.508;13.422;2022-11-15T14:37:49;12.50;1.00
9393;DHT22;4736;52.508;13.422;2022-11-15T14:40:58;12.50;1.00
9393;DHT22;4736;52.508;13.422;2022-11-15T14:44:01;12.40;1.00
9393;DHT22;4736;52.508;13.422;2022-11-15T14:47:04;12.40;1.00
9393;DHT22;4736;52.508;13.422;2022-11-15T14:50:11;12.40;1.00
9393;DHT22;4736;52.508;13.422;2022-11-15T14:53:17;12.30;1.00
9393;DHT22;4736;52.508;13.422;2022-11-15T14:56:21;12.20;1.00
9393;DHT22;4736;52.508;13.422;2022-11-15T14:59:24;12.10;1.00
9393;DHT22;4736;52.508;13.422;2022-11-15T15:02:27;12.00;1.00
9393;DHT22;4736;52.508;13.422;2022-11-15T15:05:32;12.00;1.00
9393;DHT22;4736;52.508;13.422;2022-11-15T15:08:37;11.90;1.00
9393;DHT22;4736;52.508;13.422;2022-11-15T15:11:40;11.80;1.00
9393;DHT22;4736;52.508;13.422;2022-11-15T15:14:43;11.70;1.00
9393;DHT22;4736;52.508;13.422;2022-11-15T15:17:46;11.70;1.00
9393;DHT22;4736;52.508;13.422;2022-11-15T15:20:56;11.60;1.00
9393;DHT22;4736;52.508;13.422;2022-11-15T15:24:03;11.60;1.00
9393;DHT22;4736;52.508;13.422;2022-11-15T15:27:06;11.50;1.00
9393;DHT22;4736;52.508;13.422;2022-11-15T15:30:10;11.40;1.00
9393;DHT22;4736;52.508;13.422;2022-11-15T15:33:14;11.40;1.00
9393;DHT22;4736;52.508;13.422;2022-11-15T15:36:18;11.30;1.00
9393;DHT22;4736;52.508;13.422;2022-11-15T15:39:22;11.20;1.00
9393;DHT22;4736;52.508;13.422;2022-11-15T15:42:25;11.20;1.00
9393;DHT22;4736;52.508;13.422;2022-11-15T15:45:28;11.20;1.00
9393;DHT22;4736;52.508;13.422;2022-11-15T15:48:31;11.10;1.00
9393;DHT22;4736;52.508;13.422;2022-11-15T15:51:38;11.00;1.00
9393;DHT22;4736;52.508;13.422;2022-11-15T15:54:43;11.00;1.00
9393;DHT22;4736;52.508;13.422;2022-11-15T15:57:46;11.00;1.00
9393;DHT22;4736;52.508;13.422;2022-11-15T16:00:49;10.80;1.00
9393;DHT22;4736;52.508;13.422;2022-11-15T16:03:52;10.80;1.00
9393;DHT22;4736;52.508;13.422;2022-11-15T16:06:58;10.70;1.00
9393;DHT22;4736;52.508;13.422;2022-11-15T16:10:18;10.60;1.00
9393;DHT22;4736;52.508;13.422;2022-11-15T16:13:21;10.60;1.00
9393;DHT22;4736;52.508;13.422;2022-11-15T16:16:24;10.50;1.00
9393;DHT22;4736;52.508;13.422;2022-11-15T16:19:27;10.50;1.00
9393;DHT22;4736;52.508;13.422;2022-11-15T16:22:30;10.40;1.00
9393;DHT22;4736;52.508;13.422;2022-11-15T16:25:41;10.40;1.00
9393;DHT22;4736;52.508;13.422;2022-11-15T16:28:44;10.40;1.00
9393;DHT22;4736;52.508;13.422;2022-11-15T16:31:47;10.40;1.00
9393;DHT22;4736;52.508;13.422;2022-11-15T16:34:50;10.40;1.00
9393;DHT22;4736;52.508;13.422;2022-11-15T16:37:53;10.40;1.00
9393;DHT22;4736;52.508;13.422;2022-11-15T16:40:58;10.40;1.00
9393;DHT22;4736;52.508;13.422;2022-11-15T16:44:00;10.30;1.00
9393;DHT22;4736;52.508;13.422;2022-11-15T16:47:04;10.30;1.00
9393;DHT22;4736;52.508;13.422;2022-11-15T16:50:13;10.20;1.00
9393;DHT22;4736;52.508;13.422;2022-11-15T16:53:20;10.20;1.00
9393;DHT22;4736;52.508;13.422;2022-11-15T16:56:27;10.10;1.00
9393;DHT22;4736;52.508;13.422;2022-11-15T16:59:30;10.10;1.00
9393;DHT22;4736;52.508;13.422;2022-11-15T17:02:39;10.10;1.00
9393;DHT22;4736;52.508;13.422;2022-11-15T17:05:42;10.00;1.00
9393;DHT22;4736;52.508;13.422;2022-11-15T17:08:45;10.00;1.00
9393;DHT22;4736;52.508;13.422;2022-11-15T17:11:50;9.90;1.00
9393;DHT22;4736;52.508;13.422;2022-11-15T17:14:53;9.90;1.00
9393;DHT22;4736;52.508;13.422;2022-11-15T17:17:56;9.80;1.00
9393;DHT22;4736;52.508;13.422;2022-11-15T17:21:04;9.80;1.00
9393;DHT22;4736;52.508;13.422;2022-11-15T17:24:08;9.70;1.00
9393;DHT22;4736;52.508;13.422;2022-11-15T17:27:12;9.70;1.00
9393;DHT22;4736;52.508;13.422;2022-11-15T17:30:16;9.60;1.00
9393;DHT22;4736;52.508;13.422;2022-11-15T17:33:19;9.60;1.00
9393;DHT22;4736;52.508;13.422;2022-11-15T17:36:22;9.60;1.00
9393;DHT22;4736;52.508;13.422;2022-11-15T17:39:25;9.50;1.00
9393;DHT22;4736;52.508;13.422;2022-11-15T17:42:32;9.50;1.00
9393;DHT22;4736;52.508;13.422;2022-11-15T17:45:39;9.40;1.00
9393;DHT22;4736;52.508;13.422;2022-11-15T17:48:43;9.30;1.00
9393;DHT22;4736;52.508;13.422;2022-11-15T17:51:46;9.30;1.00
9393;DHT22;4736;52.508;13.422;2022-11-15T17:54:51;9.20;1.00
9393;DHT22;4736;52.508;13.422;2022-11-15T17:57:55;9.20;1.00
9393;DHT22;4736;52.508;13.422;2022-11-15T18:01:05;9.10;1.00
9393;DHT22;4736;52.508;13.422;2022-11-15T18:04:08;9.00;1.00
9393;DHT22;4736;52.508;13.422;2022-11-15T18:07:11;9.00;1.00
9393;DHT22;4736;52.508;13.422;2022-11-15T18:10:15;9.00;1.00
9393;DHT22;4736;52.508;13.422;2022-11-15T18:13:19;8.90;1.00
9393;DHT22;4736;52.508;13.422;2022-11-15T18:16:33;8.90;1.00
9393;DHT22;4736;52.508;13.422;2022-11-15T18:19:38;8.80;1.00
9393;DHT22;4736;52.508;13.422;2022-11-15T18:22:41;8.80;1.00
9393;DHT22;4736;52.508;13.422;2022-11-15T18:25:50;8.80;1.00
9393;DHT22;4736;52.508;13.422;2022-11-15T18:28:57;8.70;1.00
9393;DHT22;4736;52.508;13.422;2022-11-15T18:32:04;8.70;1.00
9393;DHT22;4736;52.508;13.422;2022-11-15T18:35:16;8.60;1.00
9393;DHT22;4736;52.508;13.422;2022-11-15T18:38:20;8.60;1.00
9393;DHT22;4736;52.508;13.422;2022-11-15T18:41:24;8.50;1.00
9393;DHT22;4736;52.508;13.422;2022-11-15T18:44:30;8.50;1.00
9393;DHT22;4736;52.508;13.422;2022-11-15T18:47:33;8.50;1.00
9393;DHT22;4736;52.508;13.422;2022-11-15T18:50:38;8.40;1.00
9393;DHT22;4736;52.508;13.422;2022-11-15T18:53:41;8.40;1.00
9393;DHT22;4736;52.508;13.422;2022-11-15T18:56:45;8.40;1.00
9393;DHT22;4736;52.508;13.422;2022-11-15T18:59:49;8.30;1.00
9393;DHT22;4736;52.508;13.422;2022-11-15T19:02:53;8.50;1.00
9393;DHT22;4736;52.508;13.422;2022-11-15T19:06:01;8.30;1.00
9393;DHT22;4736;52.508;13.422;2022-11-15T19:09:04;8.20;1.00
9393;DHT22;4736;52.508;13.422;2022-11-15T19:12:07;8.20;1.00
9393;DHT22;4736;52.508;13.422;2022-11-15T19:15:11;8.30;1.00
9393;DHT22;4736;52.508;13.422;2022-11-15T19:18:14;8.00;1.00
9393;DHT22;4736;52.508;13.422;2022-11-15T19:21:17;8.20;1.00
9393;DHT22;4736;52.508;13.422;2022-11-15T19:24:21;7.90;1.00
9393;DHT22;4736;52.508;13.422;2022-11-15T19:27:24;7.90;1.00
9393;DHT22;4736;52.508;13.422;2022-11-15T19:30:28;7.90;1.00
9393;DHT22;4736;52.508;13.422;2022-11-15T19:33:33;7.80;1.00
9393;DHT22;4736;52.508;13.422;2022-11-15T19:36:37;7.70;1.00
9393;DHT22;4736;52.508;13.422;2022-11-15T19:39:42;7.80;1.00
9393;DHT22;4736;52.508;13.422;2022-11-15T19:42:47;7.70;1.00
9393;DHT22;4736;52.508;13.422;2022-11-15T19:45:53;7.70;1.00
9393;DHT22;4736;52.508;13.422;2022-11-15T19:49:03;7.60;1.00
9393;DHT22;4736;52.508;13.422;2022-11-15T19:52:07;7.60;1.00
9393;DHT22;4736;52.508;13.422;2022-11-15T19:55:12;7.60;1.00
9393;DHT22;4736;52.508;13.422;2022-11-15T19:58:18;7.80;1.00
9393;DHT22;4736;52.508;13.422;2022-11-15T20:01:23;7.80;1.00
9393;DHT22;4736;52.508;13.422;2022-11-15T20:04:27;7.70;1.00
9393;DHT22;4736;52.508;13.422;2022-11-15T20:07:30;7.90;1.00
9393;DHT22;4736;52.508;13.422;2022-11-15T20:10:33;7.60;1.00
9393;DHT22;4736;52.508;13.422;2022-11-15T20:13:36;7.50;1.00
9393;DHT22;4736;52.508;13.422;2022-11-15T20:16:41;7.60;1.00
9393;DHT22;4736;52.508;13.422;2022-11-15T20:19:44;7.50;1.00
9393;DHT22;4736;52.508;13.422;2022-11-15T20:22:47;7.50;1.00
9393;DHT22;4736;52.508;13.422;2022-11-15T20:25:50;7.50;1.00
9393;DHT22;4736;52.508;13.422;2022-11-15T20:28:53;7.50;1.00
9393;DHT22;4736;52.508;13.422;2022-11-15T20:32:03;7.30;1.00
9393;DHT22;4736;52.508;13.422;2022-11-15T20:35:07;7.60;1.00
9393;DHT22;4736;52.508;13.422;2022-11-15T20:38:19;7.30;1.00
9393;DHT22;4736;52.508;13.422;2022-11-15T20:41:22;7.40;1.00